sensor_id;sensor_type;location;lat;lon;timestamp;P1;durP1;ratioP1;P2;durP2;ratioP2
45806;SDS011;31507;51.494;7.518;2022-09-30T00:01:19;27.15;;;18.17;;
45806;SDS011;31507;51.494;7.518;2022-09-30T00:03:46;28.05;;;18.15;;
45806;SDS011;31507;51.494;7.518;2022-09-30T00:06:14;28.02;;;17.85;;
45806;SDS011;31507;51.494;7.518;2022-09-30T00:08:40;28.63;;;16.42;;
45806;SDS011;31507;51.494;7.518;2022-09-30T00:11:06;30.27;;;16.17;;
45806;SDS011;31507;51.494;7.518;2022-09-30T00:13:36;24.15;;;16.23;;
45806;SDS011;31507;51.494;7.518;2022-09-30T00:16:03;27.48;;;17.48;;
45806;SDS011;31507;51.494;7.518;2022-09-30T00:18:29;25.10;;;17.00;;
45806;SDS011;31507;51.494;7.518;2022-09-30T00:20:55;25.35;;;17.23;;
45806;SDS011;31507;51.494;7.518;2022-09-30T00:23:21;23.27;;;16.73;;
45806;SDS011;31507;51.494;7.518;2022-09-30T00:25:47;26.58;;;17.17;;
45806;SDS011;31507;51.494;7.518;2022-09-30T00:28:14;24.40;;;16.25;;
45806;SDS011;31507;51.494;7.518;2022-09-30T00:30:40;25.05;;;16.00;;
45806;SDS011;31507;51.494;7.518;2022-09-30T00:33:06;27.55;;;16.13;;
45806;SDS011;31507;51.494;7.518;2022-09-30T00:35:32;24.40;;;15.82;;
45806;SDS011;31507;51.494;7.518;2022-09-30T00:37:57;19.77;;;15.68;;
45806;SDS011;31507;51.494;7.518;2022-09-30T00:40:24;21.85;;;15.18;;
45806;SDS011;31507;51.494;7.518;2022-09-30T00:42:50;21.33;;;13.88;;
45806;SDS011;31507;51.494;7.518;2022-09-30T00:45:15;23.33;;;13.35;;
45806;SDS011;31507;51.494;7.518;2022-09-30T00:53:04;24.67;;;13.55;;
45806;SDS011;31507;51.494;7.518;2022-09-30T00:58:27;18.23;;;13.48;;
45806;SDS011;31507;51.494;7.518;2022-09-30T01:01:16;16.90;;;12.45;;
45806;SDS011;31507;51.494;7.518;2022-09-30T01:03:47;21.65;;;13.60;;
45806;SDS011;31507;51.494;7.518;2022-09-30T01:06:24;28.35;;;13.63;;
45806;SDS011;31507;51.494;7.518;2022-09-30T01:08:50;15.95;;;12.57;;
45806;SDS011;31507;51.494;7.518;2022-09-30T01:11:16;20.27;;;13.63;;
45806;SDS011;31507;51.494;7.518;2022-09-30T01:13:43;23.63;;;14.07;;
45806;SDS011;31507;51.494;7.518;2022-09-30T01:46:50;18.35;;;11.82;;
45806;SDS011;31507;51.494;7.518;2022-09-30T01:52:13;16.65;;;11.50;;
45806;SDS011;31507;51.494;7.518;2022-09-30T01:57:17;14.30;;;10.40;;
45806;SDS011;31507;51.494;7.518;2022-09-30T01:59:55;14.15;;;11.05;;
45806;SDS011;31507;51.494;7.518;2022-09-30T02:05:14;20.52;;;10.68;;
45806;SDS011;31507;51.494;7.518;2022-09-30T02:07:47;24.38;;;11.75;;
45806;SDS011;31507;51.494;7.518;2022-09-30T02:10:25;14.85;;;11.13;;
45806;SDS011;31507;51.494;7.518;2022-09-30T02:13:08;17.20;;;10.50;;
45806;SDS011;31507;51.494;7.518;2022-09-30T02:15:36;15.32;;;10.98;;
45806;SDS011;31507;51.494;7.518;2022-09-30T02:18:15;16.42;;;11.38;;
45806;SDS011;31507;51.494;7.518;2022-09-30T02:20:44;16.95;;;12.25;;
45806;SDS011;31507;51.494;7.518;2022-09-30T02:23:18;18.27;;;12.40;;
45806;SDS011;31507;51.494;7.518;2022-09-30T02:29:00;20.05;;;13.35;;
45806;SDS011;31507;51.494;7.518;2022-09-30T02:31:33;17.08;;;12.88;;
45806;SDS011;31507;51.494;7.518;2022-09-30T02:34:18;17.90;;;11.85;;
45806;SDS011;31507;51.494;7.518;2022-09-30T02:42:26;17.00;;;11.85;;
45806;SDS011;31507;51.494;7.518;2022-09-30T02:45:04;18.77;;;11.50;;
45806;SDS011;31507;51.494;7.518;2022-09-30T02:50:15;17.35;;;11.48;;
45806;SDS011;31507;51.494;7.518;2022-09-30T02:52:57;16.00;;;11.75;;
45806;SDS011;31507;51.494;7.518;2022-09-30T02:58:29;16.80;;;12.77;;
45806;SDS011;31507;51.494;7.518;2022-09-30T03:00:55;23.65;;;13.98;;
45806;SDS011;31507;51.494;7.518;2022-09-30T03:03:34;28.67;;;14.43;;
45806;SDS011;31507;51.494;7.518;2022-09-30T03:06:02;23.63;;;14.45;;
45806;SDS011;31507;51.494;7.518;2022-09-30T03:08:28;25.92;;;15.10;;
45806;SDS011;31507;51.494;7.518;2022-09-30T03:10:54;26.80;;;16.77;;
45806;SDS011;31507;51.494;7.518;2022-09-30T03:21:15;27.15;;;17.60;;
45806;SDS011;31507;51.494;7.518;2022-09-30T03:26:54;27.15;;;17.38;;
45806;SDS011;31507;51.494;7.518;2022-09-30T03:46:18;28.05;;;15.82;;
45806;SDS011;31507;51.494;7.518;2022-09-30T03:49:01;26.75;;;16.08;;
45806;SDS011;31507;51.494;7.518;2022-09-30T03:51:31;22.77;;;16.08;;
45806;SDS011;31507;51.494;7.518;2022-09-30T03:54:05;27.77;;;16.15;;
45806;SDS011;31507;51.494;7.518;2022-09-30T03:56:35;24.15;;;16.40;;
45806;SDS011;31507;51.494;7.518;2022-09-30T03:59:07;19.17;;;14.55;;
45806;SDS011;31507;51.494;7.518;2022-09-30T04:01:35;20.75;;;14.88;;
45806;SDS011;31507;51.494;7.518;2022-09-30T04:04:00;17.35;;;13.95;;
45806;SDS011;31507;51.494;7.518;2022-09-30T04:06:26;23.70;;;14.18;;
45806;SDS011;31507;51.494;7.518;2022-09-30T04:08:51;26.25;;;14.75;;
45806;SDS011;31507;51.494;7.518;2022-09-30T04:11:18;18.30;;;13.60;;
45806;SDS011;31507;51.494;7.518;2022-09-30T04:13:44;24.25;;;14.35;;
45806;SDS011;31507;51.494;7.518;2022-09-30T04:16:09;17.27;;;13.10;;
45806;SDS011;31507;51.494;7.518;2022-09-30T04:18:36;26.08;;;13.98;;
45806;SDS011;31507;51.494;7.518;2022-09-30T04:21:09;21.27;;;14.07;;
45806;SDS011;31507;51.494;7.518;2022-09-30T04:23:36;21.50;;;14.88;;
45806;SDS011;31507;51.494;7.518;2022-09-30T04:26:03;23.90;;;16.42;;
45806;SDS011;31507;51.494;7.518;2022-09-30T04:28:30;33.42;;;17.08;;
45806;SDS011;31507;51.494;7.518;2022-09-30T04:31:00;27.55;;;17.17;;
45806;SDS011;31507;51.494;7.518;2022-09-30T04:33:27;30.55;;;17.70;;
45806;SDS011;31507;51.494;7.518;2022-09-30T04:35:54;28.15;;;17.65;;
45806;SDS011;31507;51.494;7.518;2022-09-30T04:38:20;29.15;;;18.70;;
45806;SDS011;31507;51.494;7.518;2022-09-30T04:40:48;35.55;;;18.08;;
45806;SDS011;31507;51.494;7.518;2022-09-30T04:43:15;35.47;;;20.10;;
45806;SDS011;31507;51.494;7.518;2022-09-30T04:45:43;37.20;;;20.33;;
45806;SDS011;31507;51.494;7.518;2022-09-30T04:48:10;43.95;;;21.52;;
45806;SDS011;31507;51.494;7.518;2022-09-30T04:50:36;37.97;;;23.67;;
45806;SDS011;31507;51.494;7.518;2022-09-30T04:53:02;34.60;;;20.60;;
45806;SDS011;31507;51.494;7.518;2022-09-30T04:55:30;34.22;;;21.33;;
45806;SDS011;31507;51.494;7.518;2022-09-30T04:57:56;37.20;;;22.10;;
45806;SDS011;31507;51.494;7.518;2022-09-30T05:00:22;37.00;;;21.42;;
45806;SDS011;31507;51.494;7.518;2022-09-30T05:02:49;32.80;;;21.95;;
45806;SDS011;31507;51.494;7.518;2022-09-30T05:05:14;33.90;;;20.95;;
45806;SDS011;31507;51.494;7.518;2022-09-30T05:07:40;35.97;;;22.55;;
45806;SDS011;31507;51.494;7.518;2022-09-30T05:10:06;34.10;;;21.95;;
45806;SDS011;31507;51.494;7.518;2022-09-30T05:12:32;34.40;;;21.70;;
45806;SDS011;31507;51.494;7.518;2022-09-30T05:14:58;31.30;;;20.20;;
45806;SDS011;31507;51.494;7.518;2022-09-30T05:17:24;35.60;;;21.20;;
45806;SDS011;31507;51.494;7.518;2022-09-30T05:19:50;36.08;;;21.67;;
45806;SDS011;31507;51.494;7.518;2022-09-30T05:22:15;37.05;;;21.13;;
45806;SDS011;31507;51.494;7.518;2022-09-30T05:24:41;28.55;;;18.40;;
45806;SDS011;31507;51.494;7.518;2022-09-30T05:27:06;23.95;;;16.98;;
45806;SDS011;31507;51.494;7.518;2022-09-30T05:29:32;23.75;;;16.80;;
45806;SDS011;31507;51.494;7.518;2022-09-30T05:31:58;27.50;;;17.75;;
45806;SDS011;31507;51.494;7.518;2022-09-30T05:34:23;28.73;;;16.73;;
45806;SDS011;31507;51.494;7.518;2022-09-30T05:36:49;27.05;;;17.38;;
45806;SDS011;31507;51.494;7.518;2022-09-30T05:39:15;29.15;;;18.33;;
45806;SDS011;31507;51.494;7.518;2022-09-30T05:41:41;30.65;;;16.95;;
45806;SDS011;31507;51.494;7.518;2022-09-30T05:44:06;31.08;;;17.38;;
45806;SDS011;31507;51.494;7.518;2022-09-30T05:46:33;29.02;;;18.02;;
45806;SDS011;31507;51.494;7.518;2022-09-30T05:48:59;31.02;;;18.08;;
45806;SDS011;31507;51.494;7.518;2022-09-30T05:51:25;27.90;;;17.75;;
45806;SDS011;31507;51.494;7.518;2022-09-30T05:53:50;26.35;;;18.45;;
45806;SDS011;31507;51.494;7.518;2022-09-30T05:56:16;26.33;;;17.88;;
45806;SDS011;31507;51.494;7.518;2022-09-30T05:58:42;33.15;;;18.83;;
45806;SDS011;31507;51.494;7.518;2022-09-30T06:01:09;32.00;;;18.92;;
45806;SDS011;31507;51.494;7.518;2022-09-30T06:03:36;30.80;;;17.35;;
45806;SDS011;31507;51.494;7.518;2022-09-30T06:06:02;29.35;;;18.73;;
45806;SDS011;31507;51.494;7.518;2022-09-30T06:08:29;28.40;;;18.10;;
45806;SDS011;31507;51.494;7.518;2022-09-30T06:10:55;32.65;;;19.35;;
45806;SDS011;31507;51.494;7.518;2022-09-30T06:13:22;34.67;;;20.52;;
45806;SDS011;31507;51.494;7.518;2022-09-30T06:15:59;32.83;;;20.73;;
45806;SDS011;31507;51.494;7.518;2022-09-30T06:18:26;30.00;;;20.20;;
45806;SDS011;31507;51.494;7.518;2022-09-30T06:20:56;28.65;;;19.83;;
45806;SDS011;31507;51.494;7.518;2022-09-30T06:23:23;30.30;;;20.05;;
45806;SDS011;31507;51.494;7.518;2022-09-30T06:25:49;30.92;;;19.73;;
45806;SDS011;31507;51.494;7.518;2022-09-30T06:28:16;33.22;;;19.88;;
45806;SDS011;31507;51.494;7.518;2022-09-30T06:30:42;34.60;;;19.23;;
45806;SDS011;31507;51.494;7.518;2022-09-30T06:33:08;31.80;;;18.85;;
45806;SDS011;31507;51.494;7.518;2022-09-30T06:35:34;27.25;;;18.67;;
45806;SDS011;31507;51.494;7.518;2022-09-30T06:38:00;31.50;;;17.90;;
45806;SDS011;31507;51.494;7.518;2022-09-30T06:40:26;29.90;;;17.45;;
45806;SDS011;31507;51.494;7.518;2022-09-30T06:42:56;24.88;;;16.05;;
45806;SDS011;31507;51.494;7.518;2022-09-30T06:45:23;23.55;;;15.82;;
45806;SDS011;31507;51.494;7.518;2022-09-30T06:47:49;21.40;;;16.25;;
45806;SDS011;31507;51.494;7.518;2022-09-30T06:50:16;20.10;;;16.38;;
45806;SDS011;31507;51.494;7.518;2022-09-30T06:52:42;26.48;;;16.23;;
45806;SDS011;31507;51.494;7.518;2022-09-30T06:55:08;21.02;;;15.40;;
45806;SDS011;31507;51.494;7.518;2022-09-30T06:57:33;23.13;;;14.80;;
45806;SDS011;31507;51.494;7.518;2022-09-30T07:00:00;19.50;;;14.48;;
45806;SDS011;31507;51.494;7.518;2022-09-30T07:02:26;24.38;;;14.15;;
45806;SDS011;31507;51.494;7.518;2022-09-30T07:04:53;20.65;;;13.85;;
45806;SDS011;31507;51.494;7.518;2022-09-30T07:07:18;19.35;;;13.18;;
45806;SDS011;31507;51.494;7.518;2022-09-30T07:09:44;23.65;;;12.95;;
45806;SDS011;31507;51.494;7.518;2022-09-30T07:12:11;19.70;;;13.75;;
45806;SDS011;31507;51.494;7.518;2022-09-30T07:14:37;17.88;;;12.43;;
45806;SDS011;31507;51.494;7.518;2022-09-30T07:17:04;18.25;;;11.77;;
45806;SDS011;31507;51.494;7.518;2022-09-30T07:19:30;16.55;;;11.85;;
45806;SDS011;31507;51.494;7.518;2022-09-30T07:21:58;15.93;;;11.32;;
45806;SDS011;31507;51.494;7.518;2022-09-30T07:24:44;13.05;;;10.20;;
45806;SDS011;31507;51.494;7.518;2022-09-30T07:27:09;15.45;;;9.18;;
45806;SDS011;31507;51.494;7.518;2022-09-30T07:29:37;16.35;;;9.50;;
45806;SDS011;31507;51.494;7.518;2022-09-30T07:32:04;12.30;;;7.93;;
45806;SDS011;31507;51.494;7.518;2022-09-30T07:34:29;10.98;;;8.48;;
45806;SDS011;31507;51.494;7.518;2022-09-30T07:36:55;14.85;;;8.48;;
45806;SDS011;31507;51.494;7.518;2022-09-30T07:39:20;11.70;;;7.57;;
45806;SDS011;31507;51.494;7.518;2022-09-30T07:41:46;12.07;;;8.38;;
45806;SDS011;31507;51.494;7.518;2022-09-30T07:44:12;18.80;;;7.68;;
45806;SDS011;31507;51.494;7.518;2022-09-30T07:46:39;13.07;;;7.60;;
45806;SDS011;31507;51.494;7.518;2022-09-30T07:49:06;11.98;;;7.63;;
45806;SDS011;31507;51.494;7.518;2022-09-30T07:51:37;8.95;;;6.88;;
45806;SDS011;31507;51.494;7.518;2022-09-30T07:54:08;11.57;;;7.40;;
45806;SDS011;31507;51.494;7.518;2022-09-30T07:56:37;14.23;;;6.85;;
45806;SDS011;31507;51.494;7.518;2022-09-30T07:59:04;11.40;;;6.35;;
45806;SDS011;31507;51.494;7.518;2022-09-30T08:01:31;10.82;;;6.47;;
45806;SDS011;31507;51.494;7.518;2022-09-30T08:03:58;11.70;;;6.32;;
45806;SDS011;31507;51.494;7.518;2022-09-30T08:06:26;11.35;;;5.88;;
45806;SDS011;31507;51.494;7.518;2022-09-30T08:08:54;13.55;;;6.47;;
45806;SDS011;31507;51.494;7.518;2022-09-30T08:11:21;11.48;;;5.38;;
45806;SDS011;31507;51.494;7.518;2022-09-30T08:13:51;9.68;;;6.65;;
45806;SDS011;31507;51.494;7.518;2022-09-30T08:16:21;12.73;;;6.47;;
45806;SDS011;31507;51.494;7.518;2022-09-30T08:18:47;11.25;;;6.22;;
45806;SDS011;31507;51.494;7.518;2022-09-30T08:21:13;11.02;;;5.35;;
45806;SDS011;31507;51.494;7.518;2022-09-30T08:23:39;10.80;;;5.40;;
45806;SDS011;31507;51.494;7.518;2022-09-30T08:26:08;8.43;;;5.18;;
45806;SDS011;31507;51.494;7.518;2022-09-30T08:28:35;12.95;;;5.80;;
45806;SDS011;31507;51.494;7.518;2022-09-30T08:33:35;11.13;;;5.45;;
45806;SDS011;31507;51.494;7.518;2022-09-30T08:36:04;8.50;;;5.15;;
45806;SDS011;31507;51.494;7.518;2022-09-30T08:38:32;11.60;;;5.25;;
45806;SDS011;31507;51.494;7.518;2022-09-30T08:46:58;12.75;;;5.65;;
45806;SDS011;31507;51.494;7.518;2022-09-30T08:52:22;8.60;;;5.03;;
45806;SDS011;31507;51.494;7.518;2022-09-30T08:54:51;5.97;;;4.50;;
45806;SDS011;31507;51.494;7.518;2022-09-30T08:57:19;7.10;;;4.40;;
45806;SDS011;31507;51.494;7.518;2022-09-30T08:59:48;6.68;;;4.55;;
45806;SDS011;31507;51.494;7.518;2022-09-30T09:04:56;8.18;;;4.43;;
45806;SDS011;31507;51.494;7.518;2022-09-30T09:07:40;12.15;;;4.47;;
45806;SDS011;31507;51.494;7.518;2022-09-30T09:10:39;8.10;;;4.10;;
45806;SDS011;31507;51.494;7.518;2022-09-30T09:18:57;7.72;;;3.85;;
45806;SDS011;31507;51.494;7.518;2022-09-30T09:24:17;9.80;;;4.28;;
45806;SDS011;31507;51.494;7.518;2022-09-30T09:27:02;8.90;;;4.67;;
45806;SDS011;31507;51.494;7.518;2022-09-30T09:32:31;10.23;;;4.50;;
45806;SDS011;31507;51.494;7.518;2022-09-30T09:35:05;9.90;;;5.10;;
45806;SDS011;31507;51.494;7.518;2022-09-30T09:43:35;9.68;;;4.00;;
45806;SDS011;31507;51.494;7.518;2022-09-30T09:48:44;7.53;;;3.92;;
45806;SDS011;31507;51.494;7.518;2022-09-30T09:53:52;11.68;;;3.97;;
45806;SDS011;31507;51.494;7.518;2022-09-30T09:56:23;9.27;;;4.13;;
45806;SDS011;31507;51.494;7.518;2022-09-30T10:01:50;6.57;;;3.50;;
45806;SDS011;31507;51.494;7.518;2022-09-30T10:04:22;8.77;;;3.75;;
45806;SDS011;31507;51.494;7.518;2022-09-30T10:11:50;5.22;;;3.60;;
45806;SDS011;31507;51.494;7.518;2022-09-30T10:14:40;9.38;;;3.60;;
45806;SDS011;31507;51.494;7.518;2022-09-30T10:17:30;10.85;;;3.22;;
45806;SDS011;31507;51.494;7.518;2022-09-30T10:20:16;11.82;;;3.10;;
45806;SDS011;31507;51.494;7.518;2022-09-30T10:22:47;5.63;;;3.47;;
45806;SDS011;31507;51.494;7.518;2022-09-30T10:27:45;9.05;;;3.53;;
45806;SDS011;31507;51.494;7.518;2022-09-30T10:30:28;4.57;;;2.92;;
45806;SDS011;31507;51.494;7.518;2022-09-30T10:33:03;10.60;;;2.80;;
45806;SDS011;31507;51.494;7.518;2022-09-30T10:35:46;6.70;;;3.22;;
45806;SDS011;31507;51.494;7.518;2022-09-30T10:38:51;7.70;;;3.63;;
45806;SDS011;31507;51.494;7.518;2022-09-30T10:41:29;6.00;;;3.30;;
45806;SDS011;31507;51.494;7.518;2022-09-30T10:43:58;9.82;;;3.33;;
45806;SDS011;31507;51.494;7.518;2022-09-30T10:46:31;9.82;;;3.53;;
45806;SDS011;31507;51.494;7.518;2022-09-30T10:48:59;8.63;;;3.20;;
45806;SDS011;31507;51.494;7.518;2022-09-30T10:51:34;4.22;;;2.65;;
45806;SDS011;31507;51.494;7.518;2022-09-30T10:54:01;8.15;;;3.10;;
45806;SDS011;31507;51.494;7.518;2022-09-30T10:56:32;7.65;;;3.45;;
45806;SDS011;31507;51.494;7.518;2022-09-30T11:01:29;7.05;;;2.88;;
45806;SDS011;31507;51.494;7.518;2022-09-30T11:06:36;13.65;;;3.05;;
45806;SDS011;31507;51.494;7.518;2022-09-30T11:09:21;7.25;;;2.60;;
45806;SDS011;31507;51.494;7.518;2022-09-30T11:11:56;5.05;;;3.20;;
45806;SDS011;31507;51.494;7.518;2022-09-30T11:14:41;6.25;;;2.88;;
45806;SDS011;31507;51.494;7.518;2022-09-30T11:17:27;8.27;;;3.08;;
45806;SDS011;31507;51.494;7.518;2022-09-30T11:22:48;6.53;;;2.92;;
45806;SDS011;31507;51.494;7.518;2022-09-30T11:25:40;4.53;;;2.55;;
45806;SDS011;31507;51.494;7.518;2022-09-30T11:28:34;8.13;;;2.50;;
45806;SDS011;31507;51.494;7.518;2022-09-30T11:31:12;3.17;;;2.10;;
45806;SDS011;31507;51.494;7.518;2022-09-30T11:33:53;6.82;;;2.55;;
45806;SDS011;31507;51.494;7.518;2022-09-30T11:44:46;6.78;;;2.80;;
45806;SDS011;31507;51.494;7.518;2022-09-30T11:52:47;7.32;;;2.80;;
45806;SDS011;31507;51.494;7.518;2022-09-30T11:58:11;8.80;;;2.28;;
45806;SDS011;31507;51.494;7.518;2022-09-30T12:00:41;5.47;;;2.35;;
45806;SDS011;31507;51.494;7.518;2022-09-30T12:03:13;5.95;;;2.38;;
45806;SDS011;31507;51.494;7.518;2022-09-30T12:05:51;6.28;;;2.70;;
45806;SDS011;31507;51.494;7.518;2022-09-30T12:08:36;4.10;;;2.50;;
45806;SDS011;31507;51.494;7.518;2022-09-30T12:11:12;5.40;;;2.55;;
45806;SDS011;31507;51.494;7.518;2022-09-30T12:13:46;12.30;;;3.70;;
45806;SDS011;31507;51.494;7.518;2022-09-30T12:16:17;7.68;;;2.53;;
45806;SDS011;31507;51.494;7.518;2022-09-30T12:18:47;4.88;;;2.35;;
45806;SDS011;31507;51.494;7.518;2022-09-30T12:21:22;7.97;;;2.20;;
45806;SDS011;31507;51.494;7.518;2022-09-30T12:26:22;6.20;;;2.70;;
45806;SDS011;31507;51.494;7.518;2022-09-30T12:37:59;10.13;;;2.43;;
45806;SDS011;31507;51.494;7.518;2022-09-30T12:48:59;6.47;;;2.05;;
45806;SDS011;31507;51.494;7.518;2022-09-30T12:51:30;5.47;;;1.70;;
45806;SDS011;31507;51.494;7.518;2022-09-30T12:53:57;6.68;;;2.13;;
45806;SDS011;31507;51.494;7.518;2022-09-30T12:56:54;7.97;;;2.75;;
45806;SDS011;31507;51.494;7.518;2022-09-30T13:01:56;5.10;;;2.30;;
45806;SDS011;31507;51.494;7.518;2022-09-30T13:09:35;5.95;;;2.00;;
45806;SDS011;31507;51.494;7.518;2022-09-30T13:15:20;3.30;;;1.85;;
45806;SDS011;31507;51.494;7.518;2022-09-30T13:17:46;3.28;;;1.80;;
45806;SDS011;31507;51.494;7.518;2022-09-30T13:28:52;5.38;;;1.70;;
45806;SDS011;31507;51.494;7.518;2022-09-30T13:31:24;3.33;;;1.38;;
45806;SDS011;31507;51.494;7.518;2022-09-30T13:36:27;4.15;;;1.40;;
45806;SDS011;31507;51.494;7.518;2022-09-30T13:41:43;5.50;;;1.70;;
45806;SDS011;31507;51.494;7.518;2022-09-30T13:44:34;3.20;;;1.27;;
45806;SDS011;31507;51.494;7.518;2022-09-30T13:47:13;2.43;;;1.50;;
45806;SDS011;31507;51.494;7.518;2022-09-30T13:50:13;4.30;;;1.20;;
45806;SDS011;31507;51.494;7.518;2022-09-30T13:52:40;2.38;;;1.38;;
45806;SDS011;31507;51.494;7.518;2022-09-30T13:55:17;3.30;;;1.40;;
45806;SDS011;31507;51.494;7.518;2022-09-30T14:24:08;3.42;;;1.70;;
45806;SDS011;31507;51.494;7.518;2022-09-30T14:32:16;3.15;;;1.52;;
45806;SDS011;31507;51.494;7.518;2022-09-30T14:34:50;4.53;;;1.70;;
45806;SDS011;31507;51.494;7.518;2022-09-30T14:37:23;5.25;;;1.70;;
45806;SDS011;31507;51.494;7.518;2022-09-30T14:39:50;9.55;;;1.98;;
45806;SDS011;31507;51.494;7.518;2022-09-30T14:42:20;3.55;;;2.20;;
45806;SDS011;31507;51.494;7.518;2022-09-30T14:44:56;4.30;;;2.40;;
45806;SDS011;31507;51.494;7.518;2022-09-30T14:47:29;4.20;;;2.25;;
45806;SDS011;31507;51.494;7.518;2022-09-30T14:49:57;4.75;;;1.90;;
45806;SDS011;31507;51.494;7.518;2022-09-30T14:52:35;5.20;;;1.92;;
45806;SDS011;31507;51.494;7.518;2022-09-30T14:55:16;4.30;;;1.70;;
45806;SDS011;31507;51.494;7.518;2022-09-30T15:00:47;3.92;;;1.70;;
45806;SDS011;31507;51.494;7.518;2022-09-30T15:03:28;5.88;;;1.70;;
45806;SDS011;31507;51.494;7.518;2022-09-30T15:05:56;4.50;;;1.90;;
45806;SDS011;31507;51.494;7.518;2022-09-30T15:08:22;4.28;;;1.90;;
45806;SDS011;31507;51.494;7.518;2022-09-30T15:10:49;7.20;;;1.90;;
45806;SDS011;31507;51.494;7.518;2022-09-30T15:13:17;2.83;;;1.70;;
45806;SDS011;31507;51.494;7.518;2022-09-30T15:15:45;5.25;;;1.70;;
45806;SDS011;31507;51.494;7.518;2022-09-30T15:21:07;2.10;;;1.30;;
45806;SDS011;31507;51.494;7.518;2022-09-30T15:23:39;6.10;;;1.45;;
45806;SDS011;31507;51.494;7.518;2022-09-30T15:26:09;2.63;;;1.67;;
45806;SDS011;31507;51.494;7.518;2022-09-30T15:28:36;6.80;;;1.70;;
45806;SDS011;31507;51.494;7.518;2022-09-30T15:31:02;3.13;;;1.70;;
45806;SDS011;31507;51.494;7.518;2022-09-30T15:33:29;5.63;;;1.95;;
45806;SDS011;31507;51.494;7.518;2022-09-30T15:36:03;2.83;;;1.48;;
45806;SDS011;31507;51.494;7.518;2022-09-30T15:38:31;4.90;;;1.70;;
45806;SDS011;31507;51.494;7.518;2022-09-30T15:41:02;3.03;;;1.63;;
45806;SDS011;31507;51.494;7.518;2022-09-30T15:43:32;2.40;;;1.30;;
45806;SDS011;31507;51.494;7.518;2022-09-30T15:48:45;5.47;;;1.52;;
45806;SDS011;31507;51.494;7.518;2022-09-30T15:51:31;2.40;;;1.40;;
45806;SDS011;31507;51.494;7.518;2022-09-30T15:54:25;3.35;;;1.55;;
45806;SDS011;31507;51.494;7.518;2022-09-30T15:56:52;4.18;;;1.55;;
45806;SDS011;31507;51.494;7.518;2022-09-30T15:59:18;5.55;;;1.13;;
45806;SDS011;31507;51.494;7.518;2022-09-30T16:01:49;3.92;;;1.45;;
45806;SDS011;31507;51.494;7.518;2022-09-30T16:06:46;3.67;;;1.27;;
45806;SDS011;31507;51.494;7.518;2022-09-30T16:11:45;9.77;;;1.75;;
45806;SDS011;31507;51.494;7.518;2022-09-30T16:14:25;3.00;;;1.30;;
45806;SDS011;31507;51.494;7.518;2022-09-30T16:16:53;6.07;;;1.30;;
45806;SDS011;31507;51.494;7.518;2022-09-30T16:19:24;4.45;;;1.38;;
45806;SDS011;31507;51.494;7.518;2022-09-30T16:21:52;6.07;;;1.25;;
45806;SDS011;31507;51.494;7.518;2022-09-30T16:26:50;4.95;;;1.50;;
45806;SDS011;31507;51.494;7.518;2022-09-30T16:29:36;4.47;;;1.58;;
45806;SDS011;31507;51.494;7.518;2022-09-30T16:32:02;3.40;;;1.60;;
45806;SDS011;31507;51.494;7.518;2022-09-30T16:34:28;2.05;;;1.38;;
45806;SDS011;31507;51.494;7.518;2022-09-30T16:37:02;5.88;;;1.50;;
45806;SDS011;31507;51.494;7.518;2022-09-30T16:39:34;3.15;;;1.30;;
45806;SDS011;31507;51.494;7.518;2022-09-30T16:42:00;7.22;;;1.10;;
45806;SDS011;31507;51.494;7.518;2022-09-30T16:44:28;2.65;;;1.25;;
45806;SDS011;31507;51.494;7.518;2022-09-30T16:46:58;2.97;;;1.23;;
45806;SDS011;31507;51.494;7.518;2022-09-30T16:49:24;2.08;;;1.15;;
45806;SDS011;31507;51.494;7.518;2022-09-30T16:51:50;3.20;;;0.93;;
45806;SDS011;31507;51.494;7.518;2022-09-30T16:54:17;2.13;;;1.23;;
45806;SDS011;31507;51.494;7.518;2022-09-30T16:56:43;4.13;;;1.08;;
45806;SDS011;31507;51.494;7.518;2022-09-30T16:59:11;4.50;;;1.13;;
45806;SDS011;31507;51.494;7.518;2022-09-30T17:01:38;6.88;;;1.30;;
45806;SDS011;31507;51.494;7.518;2022-09-30T17:04:04;5.32;;;1.13;;
45806;SDS011;31507;51.494;7.518;2022-09-30T17:06:30;3.88;;;1.23;;
45806;SDS011;31507;51.494;7.518;2022-09-30T17:08:57;5.68;;;1.30;;
45806;SDS011;31507;51.494;7.518;2022-09-30T17:11:25;7.45;;;1.30;;
45806;SDS011;31507;51.494;7.518;2022-09-30T17:13:55;4.78;;;1.60;;
45806;SDS011;31507;51.494;7.518;2022-09-30T17:16:21;4.82;;;1.58;;
45806;SDS011;31507;51.494;7.518;2022-09-30T17:18:48;5.18;;;1.67;;
45806;SDS011;31507;51.494;7.518;2022-09-30T17:21:17;6.93;;;1.63;;
45806;SDS011;31507;51.494;7.518;2022-09-30T17:23:45;5.43;;;1.90;;
45806;SDS011;31507;51.494;7.518;2022-09-30T17:26:11;6.47;;;1.67;;
45806;SDS011;31507;51.494;7.518;2022-09-30T17:28:39;3.85;;;1.83;;
45806;SDS011;31507;51.494;7.518;2022-09-30T17:31:06;5.53;;;1.83;;
45806;SDS011;31507;51.494;7.518;2022-09-30T17:33:34;3.80;;;1.75;;
45806;SDS011;31507;51.494;7.518;2022-09-30T17:36:02;2.67;;;1.73;;
45806;SDS011;31507;51.494;7.518;2022-09-30T17:38:30;4.15;;;1.70;;
45806;SDS011;31507;51.494;7.518;2022-09-30T17:40:57;7.65;;;1.52;;
45806;SDS011;31507;51.494;7.518;2022-09-30T17:43:42;4.15;;;1.52;;
45806;SDS011;31507;51.494;7.518;2022-09-30T17:46:09;4.05;;;1.83;;
45806;SDS011;31507;51.494;7.518;2022-09-30T17:48:36;13.10;;;1.63;;
45806;SDS011;31507;51.494;7.518;2022-09-30T17:51:03;4.22;;;1.25;;
45806;SDS011;31507;51.494;7.518;2022-09-30T17:53:33;3.75;;;1.45;;
45806;SDS011;31507;51.494;7.518;2022-09-30T17:56:00;4.57;;;1.77;;
45806;SDS011;31507;51.494;7.518;2022-09-30T17:58:28;6.47;;;1.85;;
45806;SDS011;31507;51.494;7.518;2022-09-30T18:00:54;5.63;;;1.67;;
45806;SDS011;31507;51.494;7.518;2022-09-30T18:03:23;3.55;;;1.85;;
45806;SDS011;31507;51.494;7.518;2022-09-30T18:05:58;4.20;;;1.70;;
45806;SDS011;31507;51.494;7.518;2022-09-30T18:08:24;6.07;;;1.77;;
45806;SDS011;31507;51.494;7.518;2022-09-30T18:10:50;4.03;;;1.80;;
45806;SDS011;31507;51.494;7.518;2022-09-30T18:13:17;4.40;;;1.90;;
45806;SDS011;31507;51.494;7.518;2022-09-30T18:15:45;5.03;;;1.95;;
45806;SDS011;31507;51.494;7.518;2022-09-30T18:18:12;6.68;;;2.22;;
45806;SDS011;31507;51.494;7.518;2022-09-30T18:20:47;6.80;;;2.05;;
45806;SDS011;31507;51.494;7.518;2022-09-30T18:23:15;4.28;;;1.88;;
45806;SDS011;31507;51.494;7.518;2022-09-30T18:25:43;5.88;;;2.05;;
45806;SDS011;31507;51.494;7.518;2022-09-30T18:28:13;4.88;;;1.90;;
45806;SDS011;31507;51.494;7.518;2022-09-30T18:30:39;7.57;;;1.60;;
45806;SDS011;31507;51.494;7.518;2022-09-30T18:33:05;4.28;;;2.00;;
45806;SDS011;31507;51.494;7.518;2022-09-30T18:35:32;5.72;;;1.85;;
45806;SDS011;31507;51.494;7.518;2022-09-30T18:37:59;5.97;;;2.47;;
45806;SDS011;31507;51.494;7.518;2022-09-30T18:40:25;7.03;;;1.70;;
45806;SDS011;31507;51.494;7.518;2022-09-30T18:42:58;2.88;;;1.35;;
45806;SDS011;31507;51.494;7.518;2022-09-30T18:45:27;4.20;;;1.63;;
45806;SDS011;31507;51.494;7.518;2022-09-30T18:47:54;4.85;;;1.80;;
45806;SDS011;31507;51.494;7.518;2022-09-30T18:50:21;3.05;;;1.50;;
45806;SDS011;31507;51.494;7.518;2022-09-30T18:52:49;3.13;;;1.70;;
45806;SDS011;31507;51.494;7.518;2022-09-30T18:55:16;2.40;;;1.58;;
45806;SDS011;31507;51.494;7.518;2022-09-30T18:57:42;5.13;;;1.40;;
45806;SDS011;31507;51.494;7.518;2022-09-30T19:00:12;3.70;;;1.48;;
45806;SDS011;31507;51.494;7.518;2022-09-30T19:02:40;2.45;;;1.55;;
45806;SDS011;31507;51.494;7.518;2022-09-30T19:05:08;7.85;;;1.77;;
45806;SDS011;31507;51.494;7.518;2022-09-30T19:07:35;4.07;;;1.35;;